sensor_id;sensor_type;location;lat;lon;timestamp;pressure;altitude;pressure_sealevel;temperature;humidity
4528;BME280;62320;51.520;6.818;2023-06-14T00:06:39;100899.59;;;21.00;40.35
4528;BME280;62320;51.520;6.818;2023-06-14T00:16:42;100897.69;;;21.05;40.49
4528;BME280;62320;51.520;6.818;2023-06-14T00:26:46;100918.66;;;20.83;40.75
4528;BME280;62320;51.520;6.818;2023-06-14T00:36:48;100916.97;;;20.82;39.83
4528;BME280;62320;51.520;6.818;2023-06-14T00:46:49;100922.84;;;20.67;40.69
4528;BME280;62320;51.520;6.818;2023-06-14T00:56:51;100927.44;;;20.39;41.58
4528;BME280;62320;51.520;6.818;2023-06-14T01:16:55;100940.66;;;20.36;40.27
4528;BME280;62320;51.520;6.818;2023-06-14T01:26:59;100935.81;;;20.25;40.36
4528;BME280;62320;51.520;6.818;2023-06-14T01:37:01;100927.28;;;20.19;40.35
4528;BME280;62320;51.520;6.818;2023-06-14T01:47:04;100922.88;;;19.96;40.50
4528;BME280;62320;51.520;6.818;2023-06-14T01:57:06;100923.91;;;19.92;41.05
4528;BME280;62320;51.520;6.818;2023-06-14T02:07:08;100931.19;;;19.59;41.16
4528;BME280;62320;51.520;6.818;2023-06-14T02:17:10;100933.72;;;19.62;41.34
4528;BME280;62320;51.520;6.818;2023-06-14T02:27:12;100935.13;;;19.46;42.19
4528;BME280;62320;51.520;6.818;2023-06-14T02:37:13;100944.19;;;19.36;41.78
4528;BME280;62320;51.520;6.818;2023-06-14T02:47:15;100950.66;;;19.24;41.80
4528;BME280;62320;51.520;6.818;2023-06-14T02:57:16;100955.16;;;19.21;41.81
4528;BME280;62320;51.520;6.818;2023-06-14T03:07:18;100952.66;;;18.90;42.92
4528;BME280;62320;51.520;6.818;2023-06-14T03:17:21;100966.56;;;18.92;43.04
4528;BME280;62320;51.520;6.818;2023-06-14T03:27:23;100975.53;;;18.85;42.34
4528;BME280;62320;51.520;6.818;2023-06-14T03:37:25;100983.09;;;18.67;42.59
4528;BME280;62320;51.520;6.818;2023-06-14T03:47:26;100997.31;;;18.58;43.47
4528;BME280;62320;51.520;6.818;2023-06-14T03:57:29;101007.00;;;18.55;43.88
4528;BME280;62320;51.520;6.818;2023-06-14T04:07:31;101017.09;;;18.37;45.15
4528;BME280;62320;51.520;6.818;2023-06-14T04:17:33;101028.56;;;18.64;43.61
4528;BME280;62320;51.520;6.818;2023-06-14T04:27:37;101035.75;;;18.56;45.68
4528;BME280;62320;51.520;6.818;2023-06-14T04:37:39;101032.41;;;18.82;43.75
4528;BME280;62320;51.520;6.818;2023-06-14T04:47:42;101045.13;;;19.23;43.94
4528;BME280;62320;51.520;6.818;2023-06-14T04:57:45;101056.44;;;19.53;44.11
4528;BME280;62320;51.520;6.818;2023-06-14T05:07:46;101063.66;;;19.72;43.97
4528;BME280;62320;51.520;6.818;2023-06-14T05:17:48;101081.03;;;20.03;43.25
4528;BME280;62320;51.520;6.818;2023-06-14T05:27:55;101071.66;;;20.20;43.52
4528;BME280;62320;51.520;6.818;2023-06-14T05:37:57;101082.22;;;20.68;42.84
4528;BME280;62320;51.520;6.818;2023-06-14T05:47:59;101073.00;;;21.04;42.75
4528;BME280;62320;51.520;6.818;2023-06-14T05:58:00;101097.63;;;21.47;42.07
4528;BME280;62320;51.520;6.818;2023-06-14T06:08:02;101111.66;;;22.12;41.05
4528;BME280;62320;51.520;6.818;2023-06-14T06:18:03;101114.69;;;22.23;41.01
4528;BME280;62320;51.520;6.818;2023-06-14T06:28:05;101121.72;;;23.02;38.87
4528;BME280;62320;51.520;6.818;2023-06-14T06:38:06;101131.31;;;23.23;39.41
4528;BME280;62320;51.520;6.818;2023-06-14T06:48:08;101136.22;;;23.68;37.92
4528;BME280;62320;51.520;6.818;2023-06-14T06:58:12;101149.50;;;23.85;37.14
4528;BME280;62320;51.520;6.818;2023-06-14T07:08:13;101156.22;;;24.09;36.96
4528;BME280;62320;51.520;6.818;2023-06-14T07:18:15;101170.09;;;24.48;37.16
4528;BME280;62320;51.520;6.818;2023-06-14T07:28:17;101172.09;;;24.60;36.65
4528;BME280;62320;51.520;6.818;2023-06-14T07:38:19;101172.25;;;24.74;35.13
4528;BME280;62320;51.520;6.818;2023-06-14T07:48:21;101170.25;;;25.12;36.97
4528;BME280;62320;51.520;6.818;2023-06-14T07:58:23;101172.09;;;25.90;35.24
4528;BME280;62320;51.520;6.818;2023-06-14T08:08:25;101167.16;;;25.84;33.88
4528;BME280;62320;51.520;6.818;2023-06-14T08:18:26;101172.81;;;25.62;35.09
4528;BME280;62320;51.520;6.818;2023-06-14T08:28:28;101173.91;;;25.74;35.14
4528;BME280;62320;51.520;6.818;2023-06-14T08:38:29;101174.81;;;26.04;34.72
4528;BME280;62320;51.520;6.818;2023-06-14T08:48:31;101178.84;;;25.95;35.76
4528;BME280;62320;51.520;6.818;2023-06-14T08:58:35;101179.56;;;26.29;34.42
4528;BME280;62320;51.520;6.818;2023-06-14T09:08:37;101201.97;;;25.62;34.89
4528;BME280;62320;51.520;6.818;2023-06-14T09:18:46;101179.28;;;25.08;34.57
4528;BME280;62320;51.520;6.818;2023-06-14T09:28:50;101196.34;;;25.03;34.73
4528;BME280;62320;51.520;6.818;2023-06-14T09:38:53;101190.06;;;25.69;32.49
4528;BME280;62320;51.520;6.818;2023-06-14T09:48:56;101190.66;;;25.59;31.99
4528;BME280;62320;51.520;6.818;2023-06-14T09:58:59;101198.16;;;25.02;32.65
4528;BME280;62320;51.520;6.818;2023-06-14T10:09:09;101204.25;;;25.35;33.19
4528;BME280;62320;51.520;6.818;2023-06-14T10:19:18;101210.13;;;24.92;34.35
4528;BME280;62320;51.520;6.818;2023-06-14T10:29:20;101197.53;;;24.97;33.93
4528;BME280;62320;51.520;6.818;2023-06-14T10:39:22;101194.88;;;24.63;33.59
4528;BME280;62320;51.520;6.818;2023-06-14T10:49:42;101186.44;;;24.39;33.78
4528;BME280;62320;51.520;6.818;2023-06-14T10:59:45;101191.31;;;24.30;34.34
4528;BME280;62320;51.520;6.818;2023-06-14T11:10:10;101191.03;;;24.17;34.73
4528;BME280;62320;51.520;6.818;2023-06-14T11:20:19;101187.72;;;24.14;34.74
4528;BME280;62320;51.520;6.818;2023-06-14T11:30:24;101182.28;;;23.98;35.15
4528;BME280;62320;51.520;6.818;2023-06-14T11:40:29;101176.38;;;24.12;34.71
4528;BME280;62320;51.520;6.818;2023-06-14T11:50:31;101176.06;;;23.99;35.50
4528;BME280;62320;51.520;6.818;2023-06-14T12:00:35;101176.69;;;24.04;35.29
4528;BME280;62320;51.520;6.818;2023-06-14T12:10:41;101169.78;;;24.01;35.95
4528;BME280;62320;51.520;6.818;2023-06-14T12:20:49;101163.03;;;23.96;35.84
4528;BME280;62320;51.520;6.818;2023-06-14T12:30:51;101175.22;;;23.98;36.14
4528;BME280;62320;51.520;6.818;2023-06-14T12:40:54;101167.91;;;23.86;36.37
4528;BME280;62320;51.520;6.818;2023-06-14T12:50:55;101178.16;;;24.11;36.00
4528;BME280;62320;51.520;6.818;2023-06-14T13:00:56;101174.22;;;24.01;36.60
4528;BME280;62320;51.520;6.818;2023-06-14T13:10:58;101181.06;;;24.05;35.65
4528;BME280;62320;51.520;6.818;2023-06-14T13:20:59;101166.88;;;24.25;35.89
4528;BME280;62320;51.520;6.818;2023-06-14T13:31:02;101155.88;;;24.17;36.78
4528;BME280;62320;51.520;6.818;2023-06-14T13:41:04;101183.47;;;24.28;35.95
4528;BME280;62320;51.520;6.818;2023-06-14T13:51:06;101161.75;;;24.22;35.81
4528;BME280;62320;51.520;6.818;2023-06-14T14:01:26;101159.41;;;24.16;35.61
4528;BME280;62320;51.520;6.818;2023-06-14T14:11:28;101144.88;;;24.24;35.85
4528;BME280;62320;51.520;6.818;2023-06-14T14:21:29;101155.47;;;24.41;35.34
4528;BME280;62320;51.520;6.818;2023-06-14T14:31:48;101162.31;;;24.45;35.73
4528;BME280;62320;51.520;6.818;2023-06-14T14:41:50;101175.38;;;24.48;36.06
4528;BME280;62320;51.520;6.818;2023-06-14T14:51:52;101164.63;;;24.51;36.18
4528;BME280;62320;51.520;6.818;2023-06-14T15:01:53;101166.44;;;24.51;36.11
4528;BME280;62320;51.520;6.818;2023-06-14T15:11:55;101169.16;;;24.49;35.84
4528;BME280;62320;51.520;6.818;2023-06-14T15:21:56;101154.06;;;24.51;35.18
4528;BME280;62320;51.520;6.818;2023-06-14T15:32:01;101163.22;;;24.44;35.56
4528;BME280;62320;51.520;6.818;2023-06-14T15:42:03;101169.69;;;24.56;35.21
4528;BME280;62320;51.520;6.818;2023-06-14T15:52:05;101165.41;;;24.53;35.37
4528;BME280;62320;51.520;6.818;2023-06-14T16:02:07;101170.78;;;24.52;35.21
4528;BME280;62320;51.520;6.818;2023-06-14T16:12:09;101155.88;;;24.51;35.42
4528;BME280;62320;51.520;6.818;2023-06-14T16:22:10;101155.22;;;24.63;35.60
4528;BME280;62320;51.520;6.818;2023-06-14T16:32:12;101167.22;;;24.53;34.83
4528;BME280;62320;51.520;6.818;2023-06-14T16:42:14;101156.69;;;24.51;34.62
4528;BME280;62320;51.520;6.818;2023-06-14T16:52:15;101163.84;;;24.49;34.77
4528;BME280;62320;51.520;6.818;2023-06-14T17:02:17;101163.09;;;24.47;34.95
4528;BME280;62320;51.520;6.818;2023-06-14T17:12:19;101176.16;;;24.50;34.68
4528;BME280;62320;51.520;6.818;2023-06-14T17:22:20;101188.59;;;24.48;35.25
4528;BME280;62320;51.520;6.818;2023-06-14T17:32:22;101177.69;;;24.54;35.07
4528;BME280;62320;51.520;6.818;2023-06-14T17:42:23;101180.59;;;24.50;35.41
4528;BME280;62320;51.520;6.818;2023-06-14T17:52:25;101185.34;;;24.43;35.36
4528;BME280;62320;51.520;6.818;2023-06-14T18:02:26;101186.66;;;24.35;36.10
4528;BME280;62320;51.520;6.818;2023-06-14T18:12:28;101191.09;;;24.34;35.60
4528;BME280;62320;51.520;6.818;2023-06-14T18:22:29;101195.41;;;24.35;35.59
4528;BME280;62320;51.520;6.818;2023-06-14T18:32:31;101212.13;;;24.19;36.33
4528;BME280;62320;51.520;6.818;2023-06-14T18:42:35;101212.13;;;24.19;37.31
4528;BME280;62320;51.520;6.818;2023-06-14T18:52:36;101220.06;;;24.19;37.03
4528;BME280;62320;51.520;6.818;2023-06-14T19:02:38;101220.94;;;24.19;36.87
4528;BME280;62320;51.520;6.818;2023-06-14T19:12:40;101229.22;;;24.12;36.80
4528;BME280;62320;51.520;6.818;2023-06-14T19:22:41;101230.22;;;23.90;37.23
4528;BME280;62320;51.520;6.818;2023-06-14T19:32:43;101238.00;;;23.75;37.72
4528;BME280;62320;51.520;6.818;2023-06-14T19:42:44;101246.66;;;23.60;38.38
4528;BME280;62320;51.520;6.818;2023-06-14T19:52:46;101259.81;;;23.41;38.29
4528;BME280;62320;51.520;6.818;2023-06-14T20:02:48;101270.19;;;23.25;38.65
4528;BME280;62320;51.520;6.818;2023-06-14T20:12:51;101283.59;;;23.01;40.19
4528;BME280;62320;51.520;6.818;2023-06-14T20:22:53;101281.50;;;22.67;41.02
4528;BME280;62320;51.520;6.818;2023-06-14T20:32:54;101279.34;;;22.55;40.65
4528;BME280;62320;51.520;6.818;2023-06-14T20:42:56;101286.69;;;22.47;39.91
4528;BME280;62320;51.520;6.818;2023-06-14T20:52:59;101304.78;;;22.13;43.14
4528;BME280;62320;51.520;6.818;2023-06-14T21:03:00;101311.16;;;21.84;43.29
4528;BME280;62320;51.520;6.818;2023-06-14T21:13:03;101314.38;;;21.44;45.42
4528;BME280;62320;51.520;6.818;2023-06-14T21:23:06;101321.41;;;21.44;45.53
4528;BME280;62320;51.520;6.818;2023-06-14T21:33:07;101313.78;;;21.36;43.22
4528;BME280;62320;51.520;6.818;2023-06-14T21:43:09;101325.41;;;21.30;43.67
4528;BME280;62320;51.520;6.818;2023-06-14T21:53:11;101321.13;;;20.76;47.27
4528;BME280;62320;51.520;6.818;2023-06-14T22:03:12;101320.19;;;20.78;45.97
4528;BME280;62320;51.520;6.818;2023-06-14T22:13:14;101329.88;;;20.76;45.74
4528;BME280;62320;51.520;6.818;2023-06-14T22:23:16;101336.06;;;20.47;47.64
4528;BME280;62320;51.520;6.818;2023-06-14T22:33:17;101327.88;;;20.29;48.96
4528;BME280;62320;51.520;6.818;2023-06-14T22:43:21;101333.34;;;20.23;50.98
4528;BME280;62320;51.520;6.818;2023-06-14T22:53:22;101327.94;;;20.27;49.64
4528;BME280;62320;51.520;6.818;2023-06-14T23:03:27;101336.25;;;20.41;46.72
4528;BME280;62320;51.520;6.818;2023-06-14T23:13:29;101325.53;;;20.21;48.06
4528;BME280;62320;51.520;6.818;2023-06-14T23:23:31;101312.91;;;20.03;49.09
4528;BME280;62320;51.520;6.818;2023-06-14T23:33:40;101319.94;;;19.73;52.43
4528;BME280;62320;51.520;6.818;2023-06-14T23:43:43;101316.50;;;20.01;48.30
4528;BME280;62320;51.520;6.818;2023-06-14T23:53:46;101317.97;;;19.80;50.77
